TimeEST,TemperatureF,Dew PointF,Humidity,Sea Level PressureIn,VisibilityMPH,Wind Direction,Wind SpeedMPH,Gust SpeedMPH,PrecipitationIn,Events,Conditions,WindDirDegrees,DateUTC
12:51 AM,24.1,16.0,71,30.32,10.0,South,4.6,-,N/A,,Overcast,170,2013-12-27 05:51:00
1:51 AM,25.0,17.1,72,30.32,10.0,South,4.6,-,N/A,,Overcast,170,2013-12-27 06:51:00
2:51 AM,27.0,16.0,63,30.31,10.0,South,6.9,-,N/A,,Overcast,180,2013-12-27 07:51:00
3:51 AM,27.0,17.1,66,30.30,10.0,South,5.8,-,N/A,,Overcast,180,2013-12-27 08:51:00
4:51 AM,28.0,17.1,63,30.28,10.0,South,6.9,-,N/A,,Overcast,190,2013-12-27 09:51:00
5:51 AM,30.0,19.0,64,30.29,10.0,SW,8.1,-,N/A,,Overcast,230,2013-12-27 10:51:00
6:51 AM,30.0,19.9,66,30.28,10.0,SW,6.9,-,N/A,,Overcast,220,2013-12-27 11:51:00
7:51 AM,30.9,21.0,67,30.30,10.0,SW,8.1,-,N/A,,Overcast,230,2013-12-27 12:51:00
8:31 AM,32.0,21.2,64,30.26,10.0,SW,8.1,-,N/A,,Overcast,230,2013-12-27 13:31:00
8:51 AM,32.0,21.0,64,30.31,10.0,SW,9.2,-,0.00,Snow,Light Snow,230,2013-12-27 13:51:00
9:51 AM,33.1,21.9,64,30.34,9.0,WSW,9.2,-,0.00,Snow,Light Snow,240,2013-12-27 14:51:00
10:51 AM,34.0,21.9,61,30.35,10.0,WSW,9.2,-,0.00,,Overcast,240,2013-12-27 15:51:00
11:51 AM,36.0,24.1,62,30.34,10.0,WSW,8.1,-,N/A,,Overcast,250,2013-12-27 16:51:00
12:51 PM,37.0,25.0,62,30.31,10.0,West,9.2,-,N/A,,Overcast,270,2013-12-27 17:51:00
1:13 PM,37.4,26.6,65,30.27,10.0,WSW,9.2,-,N/A,,Mostly Cloudy,240,2013-12-27 18:13:00
1:51 PM,39.0,26.1,60,30.30,10.0,SW,10.4,18.4,N/A,,Scattered Clouds,230,2013-12-27 18:51:00
2:51 PM,39.0,27.0,62,30.29,10.0,SW,12.7,-,N/A,,Scattered Clouds,230,2013-12-27 19:51:00
3:51 PM,39.0,27.0,62,30.29,10.0,SW,10.4,-,N/A,,Scattered Clouds,220,2013-12-27 20:51:00
4:51 PM,37.9,26.1,62,30.29,10.0,SW,6.9,-,N/A,,Scattered Clouds,220,2013-12-27 21:51:00
5:51 PM,36.0,25.0,64,30.29,10.0,South,3.5,-,N/A,,Mostly Cloudy,190,2013-12-27 22:51:00
6:51 PM,36.0,25.0,64,30.29,10.0,South,5.8,-,N/A,,Mostly Cloudy,190,2013-12-27 23:51:00
7:51 PM,36.0,26.1,67,30.27,10.0,SSW,9.2,-,N/A,,Mostly Cloudy,200,2013-12-28 00:51:00
8:51 PM,36.0,26.1,67,30.25,10.0,SW,10.4,17.3,N/A,,Partly Cloudy,220,2013-12-28 01:51:00
9:51 PM,36.0,26.1,67,30.25,10.0,SW,10.4,-,N/A,,Clear,220,2013-12-28 02:51:00
10:51 PM,36.0,26.1,67,30.23,10.0,SSW,9.2,-,N/A,,Partly Cloudy,210,2013-12-28 03:51:00
11:51 PM,36.0,26.1,67,30.21,10.0,SSW,10.4,-,N/A,,Partly Cloudy,210,2013-12-28 04:51:00